sensor_id;sensor_type;location;lat;lon;timestamp;temperature;humidity
24262;DHT22;12385;51.412;5.540;2022-11-13T00:01:15;7.50;99.90
24262;DHT22;12385;51.412;5.540;2022-11-13T00:03:41;7.50;99.90
24262;DHT22;12385;51.412;5.540;2022-11-13T00:06:09;7.50;99.90
24262;DHT22;12385;51.412;5.540;2022-11-13T00:08:35;7.50;99.90
24262;DHT22;12385;51.412;5.540;2022-11-13T00:11:12;7.50;99.90
24262;DHT22;12385;51.412;5.540;2022-11-13T00:13:39;7.50;99.90
24262;DHT22;12385;51.412;5.540;2022-11-13T00:16:08;7.40;99.90
24262;DHT22;12385;51.412;5.540;2022-11-13T00:18:35;7.40;99.90
24262;DHT22;12385;51.412;5.540;2022-11-13T00:21:12;7.40;99.90
24262;DHT22;12385;51.412;5.540;2022-11-13T00:23:39;7.30;99.90
24262;DHT22;12385;51.412;5.540;2022-11-13T00:26:13;7.30;99.90
24262;DHT22;12385;51.412;5.540;2022-11-13T00:28:39;7.20;99.90
24262;DHT22;12385;51.412;5.540;2022-11-13T00:31:06;7.20;99.90
24262;DHT22;12385;51.412;5.540;2022-11-13T00:33:33;7.10;99.90
24262;DHT22;12385;51.412;5.540;2022-11-13T00:36:03;7.10;99.90
24262;DHT22;12385;51.412;5.540;2022-11-13T00:38:29;7.00;99.90
24262;DHT22;12385;51.412;5.540;2022-11-13T00:40:55;7.00;99.90
24262;DHT22;12385;51.412;5.540;2022-11-13T00:43:20;6.90;99.90
24262;DHT22;12385;51.412;5.540;2022-11-13T00:45:46;6.90;99.90
24262;DHT22;12385;51.412;5.540;2022-11-13T00:48:11;6.90;99.90
24262;DHT22;12385;51.412;5.540;2022-11-13T00:50:37;6.80;99.90
24262;DHT22;12385;51.412;5.540;2022-11-13T00:53:02;6.80;99.90
24262;DHT22;12385;51.412;5.540;2022-11-13T00:55:28;6.80;99.90
24262;DHT22;12385;51.412;5.540;2022-11-13T00:57:54;6.80;99.90
24262;DHT22;12385;51.412;5.540;2022-11-13T01:00:19;6.80;99.90
24262;DHT22;12385;51.412;5.540;2022-11-13T01:02:45;6.80;99.90
24262;DHT22;12385;51.412;5.540;2022-11-13T01:05:10;6.70;99.90
24262;DHT22;12385;51.412;5.540;2022-11-13T01:07:36;6.70;99.90
24262;DHT22;12385;51.412;5.540;2022-11-13T01:10:06;6.70;99.90
24262;DHT22;12385;51.412;5.540;2022-11-13T01:12:32;6.60;99.90
24262;DHT22;12385;51.412;5.540;2022-11-13T01:14:58;6.60;99.90
24262;DHT22;12385;51.412;5.540;2022-11-13T01:17:25;6.50;99.90
24262;DHT22;12385;51.412;5.540;2022-11-13T01:19:51;6.50;99.90
24262;DHT22;12385;51.412;5.540;2022-11-13T01:22:16;6.50;99.90
24262;DHT22;12385;51.412;5.540;2022-11-13T01:24:42;6.40;99.90
24262;DHT22;12385;51.412;5.540;2022-11-13T01:27:08;6.40;99.90
24262;DHT22;12385;51.412;5.540;2022-11-13T01:29:34;6.40;99.90
24262;DHT22;12385;51.412;5.540;2022-11-13T01:31:59;6.30;99.90
24262;DHT22;12385;51.412;5.540;2022-11-13T01:34:25;6.30;99.90
24262;DHT22;12385;51.412;5.540;2022-11-13T01:36:50;6.30;99.90
24262;DHT22;12385;51.412;5.540;2022-11-13T01:39:16;6.30;99.90
24262;DHT22;12385;51.412;5.540;2022-11-13T01:41:41;6.30;99.90
24262;DHT22;12385;51.412;5.540;2022-11-13T01:44:12;6.30;99.90
24262;DHT22;12385;51.412;5.540;2022-11-13T01:46:42;6.30;99.90
24262;DHT22;12385;51.412;5.540;2022-11-13T01:51:45;6.30;99.90
24262;DHT22;12385;51.412;5.540;2022-11-13T01:54:21;6.20;99.90
24262;DHT22;12385;51.412;5.540;2022-11-13T01:56:48;6.10;99.90
24262;DHT22;12385;51.412;5.540;2022-11-13T01:59:17;6.10;99.90
24262;DHT22;12385;51.412;5.540;2022-11-13T02:01:44;6.00;99.90
24262;DHT22;12385;51.412;5.540;2022-11-13T02:04:11;6.00;99.90
24262;DHT22;12385;51.412;5.540;2022-11-13T02:06:58;6.00;99.90
24262;DHT22;12385;51.412;5.540;2022-11-13T02:09:27;6.00;99.90
24262;DHT22;12385;51.412;5.540;2022-11-13T02:11:53;6.00;99.90
24262;DHT22;12385;51.412;5.540;2022-11-13T02:14:21;6.00;99.90
24262;DHT22;12385;51.412;5.540;2022-11-13T02:16:51;6.00;99.90
24262;DHT22;12385;51.412;5.540;2022-11-13T02:19:42;6.00;99.90
24262;DHT22;12385;51.412;5.540;2022-11-13T02:22:29;6.00;99.90
24262;DHT22;12385;51.412;5.540;2022-11-13T02:24:59;6.00;99.90
24262;DHT22;12385;51.412;5.540;2022-11-13T02:27:30;5.90;99.90
24262;DHT22;12385;51.412;5.540;2022-11-13T02:29:58;5.90;99.90
24262;DHT22;12385;51.412;5.540;2022-11-13T02:32:23;5.90;99.90
24262;DHT22;12385;51.412;5.540;2022-11-13T02:34:49;5.90;99.90
24262;DHT22;12385;51.412;5.540;2022-11-13T02:37:15;5.90;99.90
24262;DHT22;12385;51.412;5.540;2022-11-13T02:39:40;6.00;99.90
24262;DHT22;12385;51.412;5.540;2022-11-13T02:42:06;5.90;99.90
24262;DHT22;12385;51.412;5.540;2022-11-13T02:44:31;5.90;99.90
24262;DHT22;12385;51.412;5.540;2022-11-13T02:46:57;6.00;99.90
24262;DHT22;12385;51.412;5.540;2022-11-13T02:49:22;6.00;99.90
24262;DHT22;12385;51.412;5.540;2022-11-13T02:51:48;5.90;99.90
24262;DHT22;12385;51.412;5.540;2022-11-13T02:54:14;5.90;99.90
24262;DHT22;12385;51.412;5.540;2022-11-13T02:56:39;5.90;99.90
24262;DHT22;12385;51.412;5.540;2022-11-13T02:59:05;5.90;99.90
24262;DHT22;12385;51.412;5.540;2022-11-13T03:01:31;5.90;99.90
24262;DHT22;12385;51.412;5.540;2022-11-13T03:03:56;5.90;99.90
24262;DHT22;12385;51.412;5.540;2022-11-13T03:06:22;5.90;99.90
24262;DHT22;12385;51.412;5.540;2022-11-13T03:08:47;5.90;99.90
24262;DHT22;12385;51.412;5.540;2022-11-13T03:11:13;5.90;99.90
24262;DHT22;12385;51.412;5.540;2022-11-13T03:13:38;5.90;99.90
24262;DHT22;12385;51.412;5.540;2022-11-13T03:16:10;5.90;99.90
24262;DHT22;12385;51.412;5.540;2022-11-13T03:18:36;6.00;99.90
24262;DHT22;12385;51.412;5.540;2022-11-13T03:21:10;6.00;99.90
24262;DHT22;12385;51.412;5.540;2022-11-13T03:23:36;6.10;99.90
24262;DHT22;12385;51.412;5.540;2022-11-13T03:26:07;6.10;99.90
24262;DHT22;12385;51.412;5.540;2022-11-13T03:28:34;6.20;99.90
24262;DHT22;12385;51.412;5.540;2022-11-13T03:31:00;6.30;99.90
24262;DHT22;12385;51.412;5.540;2022-11-13T03:33:26;6.30;99.90
24262;DHT22;12385;51.412;5.540;2022-11-13T03:35:51;6.30;99.90
24262;DHT22;12385;51.412;5.540;2022-11-13T03:38:17;6.30;99.90
24262;DHT22;12385;51.412;5.540;2022-11-13T03:40:43;6.30;99.90
24262;DHT22;12385;51.412;5.540;2022-11-13T03:43:09;6.40;99.90
24262;DHT22;12385;51.412;5.540;2022-11-13T03:45:35;6.40;99.90
24262;DHT22;12385;51.412;5.540;2022-11-13T03:48:02;6.50;99.90
24262;DHT22;12385;51.412;5.540;2022-11-13T03:50:27;6.50;99.90
24262;DHT22;12385;51.412;5.540;2022-11-13T03:52:53;6.60;99.90
24262;DHT22;12385;51.412;5.540;2022-11-13T03:55:18;6.60;99.90
24262;DHT22;12385;51.412;5.540;2022-11-13T03:57:46;6.60;99.90
24262;DHT22;12385;51.412;5.540;2022-11-13T04:00:12;6.60;99.90
24262;DHT22;12385;51.412;5.540;2022-11-13T04:02:38;6.60;99.90
24262;DHT22;12385;51.412;5.540;2022-11-13T04:05:04;6.60;99.90
24262;DHT22;12385;51.412;5.540;2022-11-13T04:07:30;6.60;99.90
24262;DHT22;12385;51.412;5.540;2022-11-13T04:09:55;6.70;99.90
24262;DHT22;12385;51.412;5.540;2022-11-13T04:12:21;6.70;99.90
24262;DHT22;12385;51.412;5.540;2022-11-13T04:14:46;6.70;99.90
24262;DHT22;12385;51.412;5.540;2022-11-13T04:17:12;6.70;99.90
24262;DHT22;12385;51.412;5.540;2022-11-13T04:19:38;6.60;99.90
24262;DHT22;12385;51.412;5.540;2022-11-13T04:22:03;6.60;99.90
24262;DHT22;12385;51.412;5.540;2022-11-13T04:24:29;6.60;99.90
24262;DHT22;12385;51.412;5.540;2022-11-13T04:26:54;6.60;99.90
24262;DHT22;12385;51.412;5.540;2022-11-13T04:29:20;6.60;99.90
24262;DHT22;12385;51.412;5.540;2022-11-13T04:31:45;6.50;99.90
24262;DHT22;12385;51.412;5.540;2022-11-13T04:34:11;6.50;99.90
24262;DHT22;12385;51.412;5.540;2022-11-13T04:36:37;6.50;99.90
24262;DHT22;12385;51.412;5.540;2022-11-13T04:39:02;6.40;99.90
24262;DHT22;12385;51.412;5.540;2022-11-13T04:41:28;6.40;99.90
24262;DHT22;12385;51.412;5.540;2022-11-13T04:44:12;6.40;99.90
24262;DHT22;12385;51.412;5.540;2022-11-13T04:46:38;6.40;99.90
24262;DHT22;12385;51.412;5.540;2022-11-13T04:49:04;6.40;99.90
24262;DHT22;12385;51.412;5.540;2022-11-13T04:51:29;6.40;99.90
24262;DHT22;12385;51.412;5.540;2022-11-13T04:53:55;6.40;99.90
24262;DHT22;12385;51.412;5.540;2022-11-13T04:56:21;6.30;99.90
24262;DHT22;12385;51.412;5.540;2022-11-13T04:58:47;6.30;99.90
24262;DHT22;12385;51.412;5.540;2022-11-13T05:01:12;6.30;99.90
24262;DHT22;12385;51.412;5.540;2022-11-13T05:03:38;6.30;99.90
24262;DHT22;12385;51.412;5.540;2022-11-13T05:06:05;6.30;99.90
24262;DHT22;12385;51.412;5.540;2022-11-13T05:08:31;6.30;99.90
24262;DHT22;12385;51.412;5.540;2022-11-13T05:10:57;6.30;99.90
24262;DHT22;12385;51.412;5.540;2022-11-13T05:13:22;6.30;99.90
24262;DHT22;12385;51.412;5.540;2022-11-13T05:15:48;6.30;99.90
24262;DHT22;12385;51.412;5.540;2022-11-13T05:18:14;6.20;99.90
24262;DHT22;12385;51.412;5.540;2022-11-13T05:20:39;6.20;99.90
24262;DHT22;12385;51.412;5.540;2022-11-13T05:23:05;6.20;99.90
24262;DHT22;12385;51.412;5.540;2022-11-13T05:25:31;6.20;99.90
24262;DHT22;12385;51.412;5.540;2022-11-13T05:27:57;6.20;99.90
24262;DHT22;12385;51.412;5.540;2022-11-13T05:30:23;6.20;99.90
24262;DHT22;12385;51.412;5.540;2022-11-13T05:32:49;6.20;99.90
24262;DHT22;12385;51.412;5.540;2022-11-13T05:35:14;6.10;99.90
24262;DHT22;12385;51.412;5.540;2022-11-13T05:37:40;6.10;99.90
24262;DHT22;12385;51.412;5.540;2022-11-13T05:40:06;6.10;99.90
24262;DHT22;12385;51.412;5.540;2022-11-13T05:42:31;6.10;99.90
24262;DHT22;12385;51.412;5.540;2022-11-13T05:44:57;6.10;99.90
24262;DHT22;12385;51.412;5.540;2022-11-13T05:47:22;6.10;99.90
24262;DHT22;12385;51.412;5.540;2022-11-13T05:49:48;6.00;99.90
24262;DHT22;12385;51.412;5.540;2022-11-13T05:52:14;6.00;99.90
24262;DHT22;12385;51.412;5.540;2022-11-13T05:54:39;6.00;99.90
24262;DHT22;12385;51.412;5.540;2022-11-13T05:57:05;6.00;99.90
24262;DHT22;12385;51.412;5.540;2022-11-13T05:59:30;5.90;99.90
24262;DHT22;12385;51.412;5.540;2022-11-13T06:01:56;5.90;99.90
24262;DHT22;12385;51.412;5.540;2022-11-13T06:04:22;5.80;99.90
24262;DHT22;12385;51.412;5.540;2022-11-13T06:06:47;5.80;99.90
24262;DHT22;12385;51.412;5.540;2022-11-13T06:09:14;5.80;99.90
24262;DHT22;12385;51.412;5.540;2022-11-13T06:11:41;5.80;99.90
24262;DHT22;12385;51.412;5.540;2022-11-13T06:14:07;5.70;99.90
24262;DHT22;12385;51.412;5.540;2022-11-13T06:16:36;5.60;99.90
24262;DHT22;12385;51.412;5.540;2022-11-13T06:19:06;5.60;99.90
24262;DHT22;12385;51.412;5.540;2022-11-13T06:21:34;5.50;99.90
24262;DHT22;12385;51.412;5.540;2022-11-13T06:24:00;5.50;99.90
24262;DHT22;12385;51.412;5.540;2022-11-13T06:26:28;5.40;99.90
24262;DHT22;12385;51.412;5.540;2022-11-13T06:28:54;5.40;99.90
24262;DHT22;12385;51.412;5.540;2022-11-13T06:31:29;5.30;99.90
24262;DHT22;12385;51.412;5.540;2022-11-13T06:33:56;5.30;99.90
24262;DHT22;12385;51.412;5.540;2022-11-13T06:36:28;5.30;99.90
24262;DHT22;12385;51.412;5.540;2022-11-13T06:38:54;5.30;99.90
24262;DHT22;12385;51.412;5.540;2022-11-13T06:41:23;5.30;99.90
24262;DHT22;12385;51.412;5.540;2022-11-13T06:43:49;5.20;99.90
24262;DHT22;12385;51.412;5.540;2022-11-13T06:46:23;5.10;99.90
24262;DHT22;12385;51.412;5.540;2022-11-13T06:48:49;5.10;99.90
24262;DHT22;12385;51.412;5.540;2022-11-13T06:51:20;5.10;99.90
24262;DHT22;12385;51.412;5.540;2022-11-13T06:53:47;5.10;99.90
24262;DHT22;12385;51.412;5.540;2022-11-13T06:56:13;5.00;99.90
24262;DHT22;12385;51.412;5.540;2022-11-13T06:58:39;5.00;99.90
24262;DHT22;12385;51.412;5.540;2022-11-13T07:01:16;5.00;99.90
24262;DHT22;12385;51.412;5.540;2022-11-13T07:03:43;5.00;99.90
24262;DHT22;12385;51.412;5.540;2022-11-13T07:06:11;4.90;99.90
24262;DHT22;12385;51.412;5.540;2022-11-13T07:08:41;4.90;99.90
24262;DHT22;12385;51.412;5.540;2022-11-13T07:11:10;4.90;99.90
24262;DHT22;12385;51.412;5.540;2022-11-13T07:13:36;4.90;99.90
24262;DHT22;12385;51.412;5.540;2022-11-13T07:16:04;4.80;99.90
24262;DHT22;12385;51.412;5.540;2022-11-13T07:18:31;4.90;99.90
24262;DHT22;12385;51.412;5.540;2022-11-13T07:20:57;4.90;99.90
24262;DHT22;12385;51.412;5.540;2022-11-13T07:23:23;4.80;99.90
24262;DHT22;12385;51.412;5.540;2022-11-13T07:25:51;4.90;99.90
24262;DHT22;12385;51.412;5.540;2022-11-13T07:28:18;4.90;99.90
24262;DHT22;12385;51.412;5.540;2022-11-13T07:30:44;4.90;99.90
24262;DHT22;12385;51.412;5.540;2022-11-13T07:33:09;4.90;99.90
24262;DHT22;12385;51.412;5.540;2022-11-13T07:35:35;4.90;99.90
24262;DHT22;12385;51.412;5.540;2022-11-13T07:38:00;4.90;99.90
24262;DHT22;12385;51.412;5.540;2022-11-13T07:40:26;4.90;99.90
24262;DHT22;12385;51.412;5.540;2022-11-13T07:43:01;4.90;99.90
24262;DHT22;12385;51.412;5.540;2022-11-13T07:45:28;4.90;99.90
24262;DHT22;12385;51.412;5.540;2022-11-13T07:47:57;4.90;99.90
24262;DHT22;12385;51.412;5.540;2022-11-13T07:50:23;4.90;99.90
24262;DHT22;12385;51.412;5.540;2022-11-13T07:52:54;4.90;99.90
24262;DHT22;12385;51.412;5.540;2022-11-13T07:55:20;4.90;99.90
24262;DHT22;12385;51.412;5.540;2022-11-13T07:57:45;4.90;99.90
24262;DHT22;12385;51.412;5.540;2022-11-13T08:00:11;4.90;99.90
24262;DHT22;12385;51.412;5.540;2022-11-13T08:02:37;4.90;99.90
24262;DHT22;12385;51.412;5.540;2022-11-13T08:05:05;4.90;99.90
24262;DHT22;12385;51.412;5.540;2022-11-13T08:07:30;5.00;99.90
24262;DHT22;12385;51.412;5.540;2022-11-13T08:09:56;5.00;99.90
24262;DHT22;12385;51.412;5.540;2022-11-13T08:12:21;5.00;99.90
24262;DHT22;12385;51.412;5.540;2022-11-13T08:14:47;5.10;99.90
24262;DHT22;12385;51.412;5.540;2022-11-13T08:17:12;5.10;99.90
24262;DHT22;12385;51.412;5.540;2022-11-13T08:19:38;5.20;99.90
24262;DHT22;12385;51.412;5.540;2022-11-13T08:22:04;5.30;99.90
24262;DHT22;12385;51.412;5.540;2022-11-13T08:24:29;5.30;99.90
24262;DHT22;12385;51.412;5.540;2022-11-13T08:26:55;5.30;99.90
24262;DHT22;12385;51.412;5.540;2022-11-13T08:29:21;5.40;99.90
24262;DHT22;12385;51.412;5.540;2022-11-13T08:31:47;5.40;99.90
24262;DHT22;12385;51.412;5.540;2022-11-13T08:34:12;5.40;99.90
24262;DHT22;12385;51.412;5.540;2022-11-13T08:36:38;5.50;99.90
24262;DHT22;12385;51.412;5.540;2022-11-13T08:39:04;5.50;99.90
24262;DHT22;12385;51.412;5.540;2022-11-13T08:41:30;5.60;99.90
24262;DHT22;12385;51.412;5.540;2022-11-13T08:43:55;5.60;99.90
24262;DHT22;12385;51.412;5.540;2022-11-13T08:46:21;5.70;99.90
24262;DHT22;12385;51.412;5.540;2022-11-13T08:48:46;5.80;99.90
24262;DHT22;12385;51.412;5.540;2022-11-13T08:51:12;5.90;99.90
24262;DHT22;12385;51.412;5.540;2022-11-13T08:53:37;5.90;99.90
24262;DHT22;12385;51.412;5.540;2022-11-13T08:56:03;6.00;99.90
24262;DHT22;12385;51.412;5.540;2022-11-13T08:58:29;6.00;99.90
24262;DHT22;12385;51.412;5.540;2022-11-13T09:00:59;6.10;99.90
24262;DHT22;12385;51.412;5.540;2022-11-13T09:03:25;6.20;99.90
24262;DHT22;12385;51.412;5.540;2022-11-13T09:05:50;6.30;99.90
24262;DHT22;12385;51.412;5.540;2022-11-13T09:08:16;6.30;99.90
24262;DHT22;12385;51.412;5.540;2022-11-13T09:10:42;6.40;99.90
24262;DHT22;12385;51.412;5.540;2022-11-13T09:13:08;6.50;99.90
24262;DHT22;12385;51.412;5.540;2022-11-13T09:15:36;6.50;99.90
24262;DHT22;12385;51.412;5.540;2022-11-13T09:18:04;6.60;99.90
24262;DHT22;12385;51.412;5.540;2022-11-13T09:20:31;6.70;99.90
24262;DHT22;12385;51.412;5.540;2022-11-13T09:23:07;6.70;99.90
24262;DHT22;12385;51.412;5.540;2022-11-13T09:25:35;6.80;99.90
24262;DHT22;12385;51.412;5.540;2022-11-13T09:28:02;6.80;99.90
24262;DHT22;12385;51.412;5.540;2022-11-13T09:30:28;6.90;99.90
24262;DHT22;12385;51.412;5.540;2022-11-13T09:32:56;7.00;99.90
24262;DHT22;12385;51.412;5.540;2022-11-13T09:35:25;7.00;99.90
24262;DHT22;12385;51.412;5.540;2022-11-13T09:38:06;7.00;99.90
24262;DHT22;12385;51.412;5.540;2022-11-13T09:40:48;7.10;99.90
24262;DHT22;12385;51.412;5.540;2022-11-13T09:46:01;7.20;99.90
24262;DHT22;12385;51.412;5.540;2022-11-13T09:48:35;7.20;99.90
24262;DHT22;12385;51.412;5.540;2022-11-13T09:51:05;7.30;99.90
24262;DHT22;12385;51.412;5.540;2022-11-13T09:53:35;7.40;99.90
24262;DHT22;12385;51.412;5.540;2022-11-13T10:01:25;7.50;99.90
24262;DHT22;12385;51.412;5.540;2022-11-13T10:03:58;7.60;99.90
24262;DHT22;12385;51.412;5.540;2022-11-13T10:06:42;7.70;99.90
24262;DHT22;12385;51.412;5.540;2022-11-13T10:09:20;7.80;99.90
24262;DHT22;12385;51.412;5.540;2022-11-13T10:11:58;7.80;99.90
24262;DHT22;12385;51.412;5.540;2022-11-13T10:14:36;7.90;99.90
24262;DHT22;12385;51.412;5.540;2022-11-13T10:19:56;8.00;99.90
24262;DHT22;12385;51.412;5.540;2022-11-13T10:22:31;8.10;99.90
24262;DHT22;12385;51.412;5.540;2022-11-13T10:25:15;8.20;99.90
24262;DHT22;12385;51.412;5.540;2022-11-13T10:27:42;8.30;99.90
24262;DHT22;12385;51.412;5.540;2022-11-13T10:30:14;8.40;99.90
24262;DHT22;12385;51.412;5.540;2022-11-13T10:32:40;8.40;99.90
24262;DHT22;12385;51.412;5.540;2022-11-13T10:37:42;8.60;99.90
24262;DHT22;12385;51.412;5.540;2022-11-13T10:40:09;8.70;99.90
24262;DHT22;12385;51.412;5.540;2022-11-13T10:42:40;8.80;99.90
24262;DHT22;12385;51.412;5.540;2022-11-13T10:45:17;8.80;99.90
24262;DHT22;12385;51.412;5.540;2022-11-13T10:47:50;8.90;99.90
24262;DHT22;12385;51.412;5.540;2022-11-13T10:50:21;8.90;99.90
24262;DHT22;12385;51.412;5.540;2022-11-13T10:52:48;9.00;99.90
24262;DHT22;12385;51.412;5.540;2022-11-13T10:58:01;9.20;99.90
24262;DHT22;12385;51.412;5.540;2022-11-13T11:00:31;9.20;99.90
24262;DHT22;12385;51.412;5.540;2022-11-13T11:02:57;9.30;99.90
24262;DHT22;12385;51.412;5.540;2022-11-13T11:05:25;9.40;99.90
24262;DHT22;12385;51.412;5.540;2022-11-13T11:07:55;9.50;99.90
24262;DHT22;12385;51.412;5.540;2022-11-13T11:10:32;9.60;99.90
24262;DHT22;12385;51.412;5.540;2022-11-13T11:13:09;9.70;99.90
24262;DHT22;12385;51.412;5.540;2022-11-13T11:15:41;9.70;99.90
24262;DHT22;12385;51.412;5.540;2022-11-13T11:18:32;9.80;99.90
24262;DHT22;12385;51.412;5.540;2022-11-13T11:21:05;9.90;99.90
24262;DHT22;12385;51.412;5.540;2022-11-13T11:23:46;9.90;99.90
24262;DHT22;12385;51.412;5.540;2022-11-13T11:26:35;10.00;99.90
24262;DHT22;12385;51.412;5.540;2022-11-13T11:32:08;10.00;99.90
24262;DHT22;12385;51.412;5.540;2022-11-13T11:34:49;10.10;99.90
24262;DHT22;12385;51.412;5.540;2022-11-13T11:37:24;10.20;99.90
24262;DHT22;12385;51.412;5.540;2022-11-13T11:40:02;10.30;99.90
24262;DHT22;12385;51.412;5.540;2022-11-13T11:42:43;10.40;99.90
24262;DHT22;12385;51.412;5.540;2022-11-13T11:45:19;10.50;99.90
24262;DHT22;12385;51.412;5.540;2022-11-13T11:47:48;10.50;99.90
24262;DHT22;12385;51.412;5.540;2022-11-13T11:50:16;10.60;99.90
24262;DHT22;12385;51.412;5.540;2022-11-13T11:55:58;10.90;99.90
24262;DHT22;12385;51.412;5.540;2022-11-13T12:01:37;11.10;99.90
24262;DHT22;12385;51.412;5.540;2022-11-13T12:07:11;11.20;99.90
24262;DHT22;12385;51.412;5.540;2022-11-13T12:21:17;11.80;99.90
24262;DHT22;12385;51.412;5.540;2022-11-13T12:26:27;12.00;99.90
24262;DHT22;12385;51.412;5.540;2022-11-13T12:29:12;12.10;99.90
24262;DHT22;12385;51.412;5.540;2022-11-13T12:34:33;12.30;99.90
24262;DHT22;12385;51.412;5.540;2022-11-13T12:37:09;12.40;99.90
24262;DHT22;12385;51.412;5.540;2022-11-13T12:42:38;12.80;99.90
24262;DHT22;12385;51.412;5.540;2022-11-13T12:45:24;13.00;99.90
24262;DHT22;12385;51.412;5.540;2022-11-13T12:47:53;13.10;99.90
24262;DHT22;12385;51.412;5.540;2022-11-13T12:50:26;13.20;99.90
24262;DHT22;12385;51.412;5.540;2022-11-13T12:53:02;13.40;99.90
24262;DHT22;12385;51.412;5.540;2022-11-13T12:55:34;13.60;99.90
24262;DHT22;12385;51.412;5.540;2022-11-13T13:16:35;14.90;99.90
24262;DHT22;12385;51.412;5.540;2022-11-13T13:19:23;15.10;99.90
24262;DHT22;12385;51.412;5.540;2022-11-13T13:21:49;15.30;99.90
24262;DHT22;12385;51.412;5.540;2022-11-13T13:24:30;15.40;99.90
24262;DHT22;12385;51.412;5.540;2022-11-13T13:26:56;15.60;99.90
24262;DHT22;12385;51.412;5.540;2022-11-13T13:29:26;15.80;99.90
24262;DHT22;12385;51.412;5.540;2022-11-13T13:34:45;16.20;99.90
24262;DHT22;12385;51.412;5.540;2022-11-13T13:47:46;16.90;99.90
24262;DHT22;12385;51.412;5.540;2022-11-13T13:50:16;17.20;99.90
24262;DHT22;12385;51.412;5.540;2022-11-13T13:52:43;17.60;99.90
24262;DHT22;12385;51.412;5.540;2022-11-13T13:55:23;17.90;99.90
24262;DHT22;12385;51.412;5.540;2022-11-13T13:57:51;18.20;99.90
24262;DHT22;12385;51.412;5.540;2022-11-13T14:00:18;18.30;99.90
24262;DHT22;12385;51.412;5.540;2022-11-13T14:02:49;18.40;99.90
24262;DHT22;12385;51.412;5.540;2022-11-13T14:05:30;18.40;99.90
24262;DHT22;12385;51.412;5.540;2022-11-13T14:07:58;18.40;99.90
24262;DHT22;12385;51.412;5.540;2022-11-13T14:10:26;18.20;99.90
24262;DHT22;12385;51.412;5.540;2022-11-13T14:12:53;18.00;99.90
24262;DHT22;12385;51.412;5.540;2022-11-13T14:15:21;17.70;99.90
24262;DHT22;12385;51.412;5.540;2022-11-13T14:17:47;17.30;99.80
24262;DHT22;12385;51.412;5.540;2022-11-13T14:20:13;17.00;99.90
24262;DHT22;12385;51.412;5.540;2022-11-13T14:22:39;16.60;99.90
24262;DHT22;12385;51.412;5.540;2022-11-13T14:25:17;16.30;99.90
24262;DHT22;12385;51.412;5.540;2022-11-13T14:27:45;16.00;99.90
24262;DHT22;12385;51.412;5.540;2022-11-13T14:30:40;15.80;99.90
24262;DHT22;12385;51.412;5.540;2022-11-13T14:33:09;15.50;99.90
24262;DHT22;12385;51.412;5.540;2022-11-13T14:35:37;15.40;99.90
24262;DHT22;12385;51.412;5.540;2022-11-13T14:38:04;15.20;99.90
24262;DHT22;12385;51.412;5.540;2022-11-13T14:40:30;15.10;99.90
24262;DHT22;12385;51.412;5.540;2022-11-13T14:43:01;14.90;99.90
24262;DHT22;12385;51.412;5.540;2022-11-13T14:45:31;14.90;99.90
24262;DHT22;12385;51.412;5.540;2022-11-13T14:48:00;14.70;99.90
24262;DHT22;12385;51.412;5.540;2022-11-13T14:50:29;14.60;99.90
24262;DHT22;12385;51.412;5.540;2022-11-13T14:53:00;14.50;99.90
24262;DHT22;12385;51.412;5.540;2022-11-13T14:55:32;14.50;99.90
24262;DHT22;12385;51.412;5.540;2022-11-13T14:57:58;14.40;99.90
24262;DHT22;12385;51.412;5.540;2022-11-13T15:00:42;14.40;99.90
24262;DHT22;12385;51.412;5.540;2022-11-13T15:03:07;14.30;99.90
24262;DHT22;12385;51.412;5.540;2022-11-13T15:05:33;14.10;99.90
24262;DHT22;12385;51.412;5.540;2022-11-13T15:07:59;14.00;99.90
24262;DHT22;12385;51.412;5.540;2022-11-13T15:10:26;13.90;99.90
24262;DHT22;12385;51.412;5.540;2022-11-13T15:12:52;13.80;99.90
24262;DHT22;12385;51.412;5.540;2022-11-13T15:15:25;13.70;99.90
24262;DHT22;12385;51.412;5.540;2022-11-13T15:17:51;13.60;99.90
24262;DHT22;12385;51.412;5.540;2022-11-13T15:20:22;13.50;99.90
24262;DHT22;12385;51.412;5.540;2022-11-13T15:22:50;13.50;99.90
24262;DHT22;12385;51.412;5.540;2022-11-13T15:25:20;13.40;99.90
24262;DHT22;12385;51.412;5.540;2022-11-13T15:27:46;13.30;99.90
24262;DHT22;12385;51.412;5.540;2022-11-13T15:30:13;13.30;99.90
24262;DHT22;12385;51.412;5.540;2022-11-13T15:32:38;13.20;99.90
24262;DHT22;12385;51.412;5.540;2022-11-13T15:35:05;13.20;99.90
24262;DHT22;12385;51.412;5.540;2022-11-13T15:37:32;13.10;99.90
24262;DHT22;12385;51.412;5.540;2022-11-13T15:39:58;13.10;99.90
24262;DHT22;12385;51.412;5.540;2022-11-13T15:42:33;13.00;99.90
24262;DHT22;12385;51.412;5.540;2022-11-13T15:45:00;13.00;99.90
24262;DHT22;12385;51.412;5.540;2022-11-13T15:49:51;12.90;99.90
24262;DHT22;12385;51.412;5.540;2022-11-13T15:52:17;12.80;99.90
24262;DHT22;12385;51.412;5.540;2022-11-13T15:54:43;12.70;99.90
24262;DHT22;12385;51.412;5.540;2022-11-13T15:57:20;12.60;99.90
24262;DHT22;12385;51.412;5.540;2022-11-13T15:59:46;12.50;99.90
24262;DHT22;12385;51.412;5.540;2022-11-13T16:02:11;12.40;99.90
24262;DHT22;12385;51.412;5.540;2022-11-13T16:04:38;12.30;99.90
24262;DHT22;12385;51.412;5.540;2022-11-13T16:07:09;12.20;99.90
24262;DHT22;12385;51.412;5.540;2022-11-13T16:09:36;12.10;99.90
24262;DHT22;12385;51.412;5.540;2022-11-13T16:12:01;12.10;99.90
24262;DHT22;12385;51.412;5.540;2022-11-13T16:14:27;11.90;99.90
24262;DHT22;12385;51.412;5.540;2022-11-13T16:16:53;11.90;99.90
24262;DHT22;12385;51.412;5.540;2022-11-13T16:19:23;11.80;99.90
24262;DHT22;12385;51.412;5.540;2022-11-13T16:21:49;11.70;99.90
24262;DHT22;12385;51.412;5.540;2022-11-13T16:24:14;11.60;99.90
24262;DHT22;12385;51.412;5.540;2022-11-13T16:26:43;11.60;99.90
24262;DHT22;12385;51.412;5.540;2022-11-13T16:29:17;11.50;99.90
24262;DHT22;12385;51.412;5.540;2022-11-13T16:31:43;11.50;99.90
24262;DHT22;12385;51.412;5.540;2022-11-13T16:34:09;11.40;99.90
24262;DHT22;12385;51.412;5.540;2022-11-13T16:36:34;11.30;99.90
24262;DHT22;12385;51.412;5.540;2022-11-13T16:39:00;11.20;99.90
24262;DHT22;12385;51.412;5.540;2022-11-13T16:41:26;11.20;99.90
24262;DHT22;12385;51.412;5.540;2022-11-13T16:43:52;11.10;99.90
24262;DHT22;12385;51.412;5.540;2022-11-13T16:46:33;11.10;99.90
24262;DHT22;12385;51.412;5.540;2022-11-13T16:49:00;11.00;99.90
24262;DHT22;12385;51.412;5.540;2022-11-13T16:51:25;10.90;99.90
24262;DHT22;12385;51.412;5.540;2022-11-13T16:53:51;10.90;99.90
24262;DHT22;12385;51.412;5.540;2022-11-13T16:56:20;10.80;99.90
24262;DHT22;12385;51.412;5.540;2022-11-13T16:58:49;10.70;99.90
24262;DHT22;12385;51.412;5.540;2022-11-13T17:01:18;10.70;99.90
24262;DHT22;12385;51.412;5.540;2022-11-13T17:03:45;10.60;99.90
24262;DHT22;12385;51.412;5.540;2022-11-13T17:06:24;10.60;99.90
24262;DHT22;12385;51.412;5.540;2022-11-13T17:08:52;10.60;99.90
24262;DHT22;12385;51.412;5.540;2022-11-13T17:11:18;10.50;99.90
24262;DHT22;12385;51.412;5.540;2022-11-13T17:13:48;10.40;99.90
24262;DHT22;12385;51.412;5.540;2022-11-13T17:16:14;10.40;99.90